Terminal Aerodrome Forecast
Issued by NWS Lake Charles, LA

Home | Current Version | Previous Version | Text Only | Print | Product List | Glossary On
Versions: 1 2 3 4 5 6 7 8 9 10 11 12 13 14
073
FTUS44 KLCH 250520
TAFLCH
TAF
KLCH 250520Z 2506/2606 14007KT P6SM FEW015 FEW040
     FM251300 15010KT P6SM SCT015 BKN025
     FM251600 17013G20KT P6SM SCT025 BKN035
     FM260000 16010KT P6SM SCT025 SCT040=

USA.gov is the U.S. government's official web portal to all federal, state and local government web resources and services.